sensor_id;sensor_type;location;lat;lon;timestamp;temperature;humidity
28725;DHT22;43472;48.980;9.646;2023-05-16T00:01:53;11.10;99.90
28725;DHT22;43472;48.980;9.646;2023-05-16T00:06:56;10.50;99.90
28725;DHT22;43472;48.980;9.646;2023-05-16T00:11:58;10.70;99.90
28725;DHT22;43472;48.980;9.646;2023-05-16T00:17:00;10.70;99.90
28725;DHT22;43472;48.980;9.646;2023-05-16T00:22:01;10.70;99.90
28725;DHT22;43472;48.980;9.646;2023-05-16T00:27:04;10.60;99.90
28725;DHT22;43472;48.980;9.646;2023-05-16T00:32:07;10.60;99.90
28725;DHT22;43472;48.980;9.646;2023-05-16T00:37:09;10.40;99.90
28725;DHT22;43472;48.980;9.646;2023-05-16T00:42:11;11.00;99.90
28725;DHT22;43472;48.980;9.646;2023-05-16T00:47:13;10.30;99.90
28725;DHT22;43472;48.980;9.646;2023-05-16T00:52:15;11.20;99.90
28725;DHT22;43472;48.980;9.646;2023-05-16T00:57:17;10.30;99.90
28725;DHT22;43472;48.980;9.646;2023-05-16T01:02:19;10.30;99.90
28725;DHT22;43472;48.980;9.646;2023-05-16T01:07:21;10.20;99.90
28725;DHT22;43472;48.980;9.646;2023-05-16T01:12:31;10.30;99.90
28725;DHT22;43472;48.980;9.646;2023-05-16T01:28:16;10.10;99.90
28725;DHT22;43472;48.980;9.646;2023-05-16T01:33:18;10.10;99.90
28725;DHT22;43472;48.980;9.646;2023-05-16T01:38:31;10.00;99.90
28725;DHT22;43472;48.980;9.646;2023-05-16T01:43:48;10.10;99.90
28725;DHT22;43472;48.980;9.646;2023-05-16T01:48:56;10.10;99.90
28725;DHT22;43472;48.980;9.646;2023-05-16T01:54:04;10.00;99.90
28725;DHT22;43472;48.980;9.646;2023-05-16T01:59:07;10.00;99.90
28725;DHT22;43472;48.980;9.646;2023-05-16T02:04:09;10.60;99.90
28725;DHT22;43472;48.980;9.646;2023-05-16T02:09:11;10.00;99.90
28725;DHT22;43472;48.980;9.646;2023-05-16T02:14:13;9.90;99.90
28725;DHT22;43472;48.980;9.646;2023-05-16T02:19:15;9.90;99.90
28725;DHT22;43472;48.980;9.646;2023-05-16T02:29:19;9.70;99.90
28725;DHT22;43472;48.980;9.646;2023-05-16T02:34:21;10.60;99.90
28725;DHT22;43472;48.980;9.646;2023-05-16T02:39:23;9.50;99.90
28725;DHT22;43472;48.980;9.646;2023-05-16T02:49:27;9.60;99.90
28725;DHT22;43472;48.980;9.646;2023-05-16T02:54:29;12.80;99.90
28725;DHT22;43472;48.980;9.646;2023-05-16T03:04:33;9.60;99.90
28725;DHT22;43472;48.980;9.646;2023-05-16T03:09:35;9.60;99.90
28725;DHT22;43472;48.980;9.646;2023-05-16T03:14:37;9.60;99.90
28725;DHT22;43472;48.980;9.646;2023-05-16T03:19:39;9.60;99.90
28725;DHT22;43472;48.980;9.646;2023-05-16T03:24:40;9.50;99.90
28725;DHT22;43472;48.980;9.646;2023-05-16T03:29:42;9.50;99.90
28725;DHT22;43472;48.980;9.646;2023-05-16T03:34:44;9.60;99.90
28725;DHT22;43472;48.980;9.646;2023-05-16T03:39:47;12.10;99.90
28725;DHT22;43472;48.980;9.646;2023-05-16T03:49:51;9.60;99.90
28725;DHT22;43472;48.980;9.646;2023-05-16T03:54:53;9.90;99.90
28725;DHT22;43472;48.980;9.646;2023-05-16T03:59:55;9.80;99.90
28725;DHT22;43472;48.980;9.646;2023-05-16T04:04:57;9.80;99.90
28725;DHT22;43472;48.980;9.646;2023-05-16T04:09:59;9.80;99.90
28725;DHT22;43472;48.980;9.646;2023-05-16T04:15:05;9.70;99.90
28725;DHT22;43472;48.980;9.646;2023-05-16T04:20:07;9.70;99.90
28725;DHT22;43472;48.980;9.646;2023-05-16T04:30:13;9.90;99.90
28725;DHT22;43472;48.980;9.646;2023-05-16T04:35:15;10.10;99.90
28725;DHT22;43472;48.980;9.646;2023-05-16T04:40:16;10.10;99.90
28725;DHT22;43472;48.980;9.646;2023-05-16T04:45:19;10.10;99.90
28725;DHT22;43472;48.980;9.646;2023-05-16T04:50:21;11.00;99.90
28725;DHT22;43472;48.980;9.646;2023-05-16T04:55:23;10.20;99.90
28725;DHT22;43472;48.980;9.646;2023-05-16T05:00:26;10.30;99.90
28725;DHT22;43472;48.980;9.646;2023-05-16T05:05:30;10.30;99.90
28725;DHT22;43472;48.980;9.646;2023-05-16T05:10:33;10.40;99.90
28725;DHT22;43472;48.980;9.646;2023-05-16T05:20:37;10.50;99.90
28725;DHT22;43472;48.980;9.646;2023-05-16T05:30:41;10.60;99.90
28725;DHT22;43472;48.980;9.646;2023-05-16T05:35:43;10.60;99.90
28725;DHT22;43472;48.980;9.646;2023-05-16T05:40:45;10.40;99.90
28725;DHT22;43472;48.980;9.646;2023-05-16T05:45:48;10.60;99.90
28725;DHT22;43472;48.980;9.646;2023-05-16T05:50:50;10.60;99.90
28725;DHT22;43472;48.980;9.646;2023-05-16T05:55:53;11.00;99.90
28725;DHT22;43472;48.980;9.646;2023-05-16T06:00:55;11.00;99.90
28725;DHT22;43472;48.980;9.646;2023-05-16T06:05:57;11.10;99.90
28725;DHT22;43472;48.980;9.646;2023-05-16T06:11:00;11.10;99.90
28725;DHT22;43472;48.980;9.646;2023-05-16T06:16:02;11.50;99.90
28725;DHT22;43472;48.980;9.646;2023-05-16T06:21:04;11.40;99.90
28725;DHT22;43472;48.980;9.646;2023-05-16T06:26:07;11.40;99.90
28725;DHT22;43472;48.980;9.646;2023-05-16T06:31:09;11.40;99.90
28725;DHT22;43472;48.980;9.646;2023-05-16T06:36:11;11.60;99.90
28725;DHT22;43472;48.980;9.646;2023-05-16T06:41:13;11.60;99.90
28725;DHT22;43472;48.980;9.646;2023-05-16T06:46:14;11.60;99.90
28725;DHT22;43472;48.980;9.646;2023-05-16T06:51:16;12.10;99.90
28725;DHT22;43472;48.980;9.646;2023-05-16T06:56:18;12.30;99.90
28725;DHT22;43472;48.980;9.646;2023-05-16T07:01:20;12.30;99.90
28725;DHT22;43472;48.980;9.646;2023-05-16T07:06:22;12.80;99.90
28725;DHT22;43472;48.980;9.646;2023-05-16T07:11:24;12.60;99.90
28725;DHT22;43472;48.980;9.646;2023-05-16T07:16:26;13.10;99.90
28725;DHT22;43472;48.980;9.646;2023-05-16T07:21:29;13.30;99.90
28725;DHT22;43472;48.980;9.646;2023-05-16T07:26:31;13.60;99.90
28725;DHT22;43472;48.980;9.646;2023-05-16T07:31:33;15.90;99.90
28725;DHT22;43472;48.980;9.646;2023-05-16T07:36:35;13.80;99.90
28725;DHT22;43472;48.980;9.646;2023-05-16T07:41:40;13.80;99.90
28725;DHT22;43472;48.980;9.646;2023-05-16T07:46:42;13.80;99.90
28725;DHT22;43472;48.980;9.646;2023-05-16T07:51:46;13.80;99.90
28725;DHT22;43472;48.980;9.646;2023-05-16T07:56:48;13.60;99.90
28725;DHT22;43472;48.980;9.646;2023-05-16T08:01:50;13.60;99.90
28725;DHT22;43472;48.980;9.646;2023-05-16T08:06:52;13.40;99.90
28725;DHT22;43472;48.980;9.646;2023-05-16T08:11:54;13.60;99.90
28725;DHT22;43472;48.980;9.646;2023-05-16T08:16:57;14.10;99.90
28725;DHT22;43472;48.980;9.646;2023-05-16T08:21:59;13.90;99.90
28725;DHT22;43472;48.980;9.646;2023-05-16T08:27:01;13.70;99.90
28725;DHT22;43472;48.980;9.646;2023-05-16T08:32:04;13.70;99.90
28725;DHT22;43472;48.980;9.646;2023-05-16T08:42:09;13.60;99.90
28725;DHT22;43472;48.980;9.646;2023-05-16T08:47:17;13.30;99.90
28725;DHT22;43472;48.980;9.646;2023-05-16T08:52:20;13.20;99.90
28725;DHT22;43472;48.980;9.646;2023-05-16T08:57:24;13.40;99.90
28725;DHT22;43472;48.980;9.646;2023-05-16T09:02:27;13.30;99.90
28725;DHT22;43472;48.980;9.646;2023-05-16T09:07:29;13.20;99.90
28725;DHT22;43472;48.980;9.646;2023-05-16T09:12:32;13.90;99.90
28725;DHT22;43472;48.980;9.646;2023-05-16T09:17:44;13.20;99.90
28725;DHT22;43472;48.980;9.646;2023-05-16T09:22:57;13.50;99.90
28725;DHT22;43472;48.980;9.646;2023-05-16T09:28:00;13.70;99.90
28725;DHT22;43472;48.980;9.646;2023-05-16T09:33:05;13.60;99.90
28725;DHT22;43472;48.980;9.646;2023-05-16T09:38:17;13.50;99.90
28725;DHT22;43472;48.980;9.646;2023-05-16T09:43:24;13.20;99.90
28725;DHT22;43472;48.980;9.646;2023-05-16T09:53:32;13.30;99.90
28725;DHT22;43472;48.980;9.646;2023-05-16T09:58:39;13.10;99.90
28725;DHT22;43472;48.980;9.646;2023-05-16T10:03:42;13.30;99.90
28725;DHT22;43472;48.980;9.646;2023-05-16T10:08:44;13.40;99.90
28725;DHT22;43472;48.980;9.646;2023-05-16T10:13:49;13.20;99.90
28725;DHT22;43472;48.980;9.646;2023-05-16T10:18:54;13.20;99.90
28725;DHT22;43472;48.980;9.646;2023-05-16T10:23:58;13.50;99.90
28725;DHT22;43472;48.980;9.646;2023-05-16T10:29:03;13.30;99.90
28725;DHT22;43472;48.980;9.646;2023-05-16T10:34:05;16.10;99.90
28725;DHT22;43472;48.980;9.646;2023-05-16T10:39:08;13.40;99.90
28725;DHT22;43472;48.980;9.646;2023-05-16T10:44:14;13.60;99.90
28725;DHT22;43472;48.980;9.646;2023-05-16T10:49:26;13.50;99.90
28725;DHT22;43472;48.980;9.646;2023-05-16T10:59:54;13.80;99.90
28725;DHT22;43472;48.980;9.646;2023-05-16T11:05:02;15.20;99.90
28725;DHT22;43472;48.980;9.646;2023-05-16T11:10:09;13.80;99.90
28725;DHT22;43472;48.980;9.646;2023-05-16T11:15:25;13.70;99.90
28725;DHT22;43472;48.980;9.646;2023-05-16T11:20:30;13.80;99.90
28725;DHT22;43472;48.980;9.646;2023-05-16T11:25:35;13.70;99.90
28725;DHT22;43472;48.980;9.646;2023-05-16T11:30:44;13.70;99.90
28725;DHT22;43472;48.980;9.646;2023-05-16T11:36:06;13.20;99.90
28725;DHT22;43472;48.980;9.646;2023-05-16T11:41:17;13.80;99.90
28725;DHT22;43472;48.980;9.646;2023-05-16T11:46:19;13.70;99.90
28725;DHT22;43472;48.980;9.646;2023-05-16T11:51:21;13.70;99.90
28725;DHT22;43472;48.980;9.646;2023-05-16T11:56:23;13.80;99.90
28725;DHT22;43472;48.980;9.646;2023-05-16T12:01:36;13.90;99.90
28725;DHT22;43472;48.980;9.646;2023-05-16T12:06:39;13.90;99.90
28725;DHT22;43472;48.980;9.646;2023-05-16T12:11:43;14.10;99.90
28725;DHT22;43472;48.980;9.646;2023-05-16T12:16:46;14.20;99.90
28725;DHT22;43472;48.980;9.646;2023-05-16T12:21:52;14.10;99.90
28725;DHT22;43472;48.980;9.646;2023-05-16T12:26:56;13.60;99.90
28725;DHT22;43472;48.980;9.646;2023-05-16T12:32:00;13.30;99.90
28725;DHT22;43472;48.980;9.646;2023-05-16T12:37:03;13.40;99.90
28725;DHT22;43472;48.980;9.646;2023-05-16T12:42:06;13.50;99.90
28725;DHT22;43472;48.980;9.646;2023-05-16T12:47:12;13.40;99.90
28725;DHT22;43472;48.980;9.646;2023-05-16T12:52:18;13.40;99.90
28725;DHT22;43472;48.980;9.646;2023-05-16T12:57:21;13.40;99.90
28725;DHT22;43472;48.980;9.646;2023-05-16T13:02:23;13.50;99.90
28725;DHT22;43472;48.980;9.646;2023-05-16T13:07:29;13.50;99.90
28725;DHT22;43472;48.980;9.646;2023-05-16T13:12:32;13.40;99.90
28725;DHT22;43472;48.980;9.646;2023-05-16T13:17:35;13.10;99.90
28725;DHT22;43472;48.980;9.646;2023-05-16T13:22:41;13.10;99.90
28725;DHT22;43472;48.980;9.646;2023-05-16T13:27:43;13.30;99.90
28725;DHT22;43472;48.980;9.646;2023-05-16T13:32:50;13.40;99.90
28725;DHT22;43472;48.980;9.646;2023-05-16T13:37:53;13.30;99.90
28725;DHT22;43472;48.980;9.646;2023-05-16T13:42:55;13.60;99.90
28725;DHT22;43472;48.980;9.646;2023-05-16T13:47:58;13.00;99.90
28725;DHT22;43472;48.980;9.646;2023-05-16T13:53:00;13.00;99.90
28725;DHT22;43472;48.980;9.646;2023-05-16T13:58:01;12.90;99.90
28725;DHT22;43472;48.980;9.646;2023-05-16T14:03:07;12.90;99.90
28725;DHT22;43472;48.980;9.646;2023-05-16T14:08:09;12.90;99.90
28725;DHT22;43472;48.980;9.646;2023-05-16T14:13:11;13.10;99.90
28725;DHT22;43472;48.980;9.646;2023-05-16T14:18:13;13.10;99.90
28725;DHT22;43472;48.980;9.646;2023-05-16T14:23:15;13.30;99.90
28725;DHT22;43472;48.980;9.646;2023-05-16T14:28:18;13.60;99.90
28725;DHT22;43472;48.980;9.646;2023-05-16T14:33:20;13.80;99.90
28725;DHT22;43472;48.980;9.646;2023-05-16T14:38:22;14.40;99.90
28725;DHT22;43472;48.980;9.646;2023-05-16T14:43:27;14.30;99.90
28725;DHT22;43472;48.980;9.646;2023-05-16T14:48:29;14.10;99.90
28725;DHT22;43472;48.980;9.646;2023-05-16T14:53:31;13.80;99.90
28725;DHT22;43472;48.980;9.646;2023-05-16T14:58:33;13.30;99.90
28725;DHT22;43472;48.980;9.646;2023-05-16T15:03:36;13.50;99.90
28725;DHT22;43472;48.980;9.646;2023-05-16T15:08:55;13.40;99.90
28725;DHT22;43472;48.980;9.646;2023-05-16T15:13:57;13.40;99.90
28725;DHT22;43472;48.980;9.646;2023-05-16T15:24:02;13.60;99.90
28725;DHT22;43472;48.980;9.646;2023-05-16T15:29:04;13.70;99.90
28725;DHT22;43472;48.980;9.646;2023-05-16T15:34:06;13.70;99.90
28725;DHT22;43472;48.980;9.646;2023-05-16T15:39:09;13.30;99.90
28725;DHT22;43472;48.980;9.646;2023-05-16T15:44:11;13.40;99.90
28725;DHT22;43472;48.980;9.646;2023-05-16T15:49:14;13.50;99.90
28725;DHT22;43472;48.980;9.646;2023-05-16T15:54:16;13.40;99.90
28725;DHT22;43472;48.980;9.646;2023-05-16T15:59:18;13.30;99.90
28725;DHT22;43472;48.980;9.646;2023-05-16T16:04:20;13.40;99.90
28725;DHT22;43472;48.980;9.646;2023-05-16T16:09:24;13.40;99.90
28725;DHT22;43472;48.980;9.646;2023-05-16T16:24:32;13.40;99.90
28725;DHT22;43472;48.980;9.646;2023-05-16T16:29:33;13.10;99.90
28725;DHT22;43472;48.980;9.646;2023-05-16T16:34:35;13.20;99.90
28725;DHT22;43472;48.980;9.646;2023-05-16T16:39:37;13.30;99.90
28725;DHT22;43472;48.980;9.646;2023-05-16T16:44:39;13.30;99.90
28725;DHT22;43472;48.980;9.646;2023-05-16T16:49:41;13.30;99.90
28725;DHT22;43472;48.980;9.646;2023-05-16T16:54:42;13.20;99.90
28725;DHT22;43472;48.980;9.646;2023-05-16T16:59:44;13.20;99.90
28725;DHT22;43472;48.980;9.646;2023-05-16T17:04:47;13.20;99.90
28725;DHT22;43472;48.980;9.646;2023-05-16T17:09:49;13.10;99.90
28725;DHT22;43472;48.980;9.646;2023-05-16T17:14:51;13.00;99.90
28725;DHT22;43472;48.980;9.646;2023-05-16T17:19:54;13.00;99.90
28725;DHT22;43472;48.980;9.646;2023-05-16T17:29:58;12.90;99.90
28725;DHT22;43472;48.980;9.646;2023-05-16T17:35:00;13.00;99.90
28725;DHT22;43472;48.980;9.646;2023-05-16T17:40:05;13.00;99.90
28725;DHT22;43472;48.980;9.646;2023-05-16T17:45:10;13.00;99.90
28725;DHT22;43472;48.980;9.646;2023-05-16T17:50:12;13.10;99.90
28725;DHT22;43472;48.980;9.646;2023-05-16T17:55:15;12.90;99.90
28725;DHT22;43472;48.980;9.646;2023-05-16T18:00:17;13.00;99.90
28725;DHT22;43472;48.980;9.646;2023-05-16T18:05:19;12.50;99.90
28725;DHT22;43472;48.980;9.646;2023-05-16T18:10:21;12.50;99.90
28725;DHT22;43472;48.980;9.646;2023-05-16T18:15:23;12.30;99.90
28725;DHT22;43472;48.980;9.646;2023-05-16T18:20:25;12.20;99.90
28725;DHT22;43472;48.980;9.646;2023-05-16T18:25:27;12.10;99.90
28725;DHT22;43472;48.980;9.646;2023-05-16T18:35:37;11.80;99.90
28725;DHT22;43472;48.980;9.646;2023-05-16T18:40:39;11.80;99.90
28725;DHT22;43472;48.980;9.646;2023-05-16T18:45:41;11.60;99.90
28725;DHT22;43472;48.980;9.646;2023-05-16T18:50:43;11.50;99.90
28725;DHT22;43472;48.980;9.646;2023-05-16T18:55:45;11.40;99.90
28725;DHT22;43472;48.980;9.646;2023-05-16T19:00:49;12.80;99.90
28725;DHT22;43472;48.980;9.646;2023-05-16T19:05:51;11.20;99.90
28725;DHT22;43472;48.980;9.646;2023-05-16T19:10:53;11.50;99.90
28725;DHT22;43472;48.980;9.646;2023-05-16T19:15:56;11.10;99.90
28725;DHT22;43472;48.980;9.646;2023-05-16T19:20:58;10.90;99.90
28725;DHT22;43472;48.980;9.646;2023-05-16T19:26:00;10.90;99.90
28725;DHT22;43472;48.980;9.646;2023-05-16T19:31:01;10.90;99.90
28725;DHT22;43472;48.980;9.646;2023-05-16T19:36:04;10.70;99.90
28725;DHT22;43472;48.980;9.646;2023-05-16T19:41:06;10.70;99.90
28725;DHT22;43472;48.980;9.646;2023-05-16T19:46:08;10.60;99.90
28725;DHT22;43472;48.980;9.646;2023-05-16T19:51:10;10.60;99.90
28725;DHT22;43472;48.980;9.646;2023-05-16T19:56:12;10.30;99.90
28725;DHT22;43472;48.980;9.646;2023-05-16T20:01:13;10.20;99.90
28725;DHT22;43472;48.980;9.646;2023-05-16T20:06:15;10.10;99.90
28725;DHT22;43472;48.980;9.646;2023-05-16T20:11:17;10.00;99.90
28725;DHT22;43472;48.980;9.646;2023-05-16T20:16:19;9.80;99.90
28725;DHT22;43472;48.980;9.646;2023-05-16T20:21:21;9.80;99.90
28725;DHT22;43472;48.980;9.646;2023-05-16T20:26:22;9.80;99.90
28725;DHT22;43472;48.980;9.646;2023-05-16T20:31:24;9.80;99.90
28725;DHT22;43472;48.980;9.646;2023-05-16T20:36:26;11.10;99.90
28725;DHT22;43472;48.980;9.646;2023-05-16T20:41:28;9.50;99.90
28725;DHT22;43472;48.980;9.646;2023-05-16T20:46:31;9.40;99.90
28725;DHT22;43472;48.980;9.646;2023-05-16T20:56:35;10.10;99.90
28725;DHT22;43472;48.980;9.646;2023-05-16T21:06:39;9.20;99.90
28725;DHT22;43472;48.980;9.646;2023-05-16T21:18:04;9.20;99.90
28725;DHT22;43472;48.980;9.646;2023-05-16T21:28:09;9.00;99.90
28725;DHT22;43472;48.980;9.646;2023-05-16T21:33:12;8.90;99.90
28725;DHT22;43472;48.980;9.646;2023-05-16T21:38:14;8.70;99.90
28725;DHT22;43472;48.980;9.646;2023-05-16T21:43:16;8.70;99.90
28725;DHT22;43472;48.980;9.646;2023-05-16T21:48:18;8.60;99.90
28725;DHT22;43472;48.980;9.646;2023-05-16T21:53:20;10.00;99.90
28725;DHT22;43472;48.980;9.646;2023-05-16T21:58:25;8.40;99.90
28725;DHT22;43472;48.980;9.646;2023-05-16T22:03:27;11.40;99.90
28725;DHT22;43472;48.980;9.646;2023-05-16T22:08:29;8.30;99.90
28725;DHT22;43472;48.980;9.646;2023-05-16T22:13:31;8.20;99.90
28725;DHT22;43472;48.980;9.646;2023-05-16T22:18:33;8.20;99.90
28725;DHT22;43472;48.980;9.646;2023-05-16T22:23:35;8.10;99.90
28725;DHT22;43472;48.980;9.646;2023-05-16T22:28:37;8.00;99.90
28725;DHT22;43472;48.980;9.646;2023-05-16T22:33:38;8.00;99.90
28725;DHT22;43472;48.980;9.646;2023-05-16T22:38:40;7.90;99.90
28725;DHT22;43472;48.980;9.646;2023-05-16T22:43:42;7.80;99.90
28725;DHT22;43472;48.980;9.646;2023-05-16T22:48:44;7.70;99.90
28725;DHT22;43472;48.980;9.646;2023-05-16T22:53:46;7.70;99.90
28725;DHT22;43472;48.980;9.646;2023-05-16T22:58:48;7.50;99.90
28725;DHT22;43472;48.980;9.646;2023-05-16T23:03:50;7.50;99.90
28725;DHT22;43472;48.980;9.646;2023-05-16T23:08:52;7.60;99.90
28725;DHT22;43472;48.980;9.646;2023-05-16T23:13:54;7.40;99.90
28725;DHT22;43472;48.980;9.646;2023-05-16T23:18:56;7.50;99.90
28725;DHT22;43472;48.980;9.646;2023-05-16T23:23:58;7.50;99.90
28725;DHT22;43472;48.980;9.646;2023-05-16T23:28:59;7.50;99.90
28725;DHT22;43472;48.980;9.646;2023-05-16T23:34:01;7.50;99.90
28725;DHT22;43472;48.980;9.646;2023-05-16T23:39:03;7.30;99.90
28725;DHT22;43472;48.980;9.646;2023-05-16T23:44:05;7.30;99.90
28725;DHT22;43472;48.980;9.646;2023-05-16T23:49:07;7.20;99.90
28725;DHT22;43472;48.980;9.646;2023-05-16T23:54:09;7.20;99.90
28725;DHT22;43472;48.980;9.646;2023-05-16T23:59:11;7.10;99.90
